sensor_id;sensor_type;location;lat;lon;timestamp;temperature;humidity
21762;DHT22;11203;50.870;20.682;2023-01-13T00:00:15;1.50;1.00
21762;DHT22;11203;50.870;20.682;2023-01-13T00:03:02;1.50;1.00
21762;DHT22;11203;50.870;20.682;2023-01-13T00:05:29;1.60;1.00
21762;DHT22;11203;50.870;20.682;2023-01-13T00:07:56;1.60;99.90
21762;DHT22;11203;50.870;20.682;2023-01-13T00:10:23;1.70;99.90
21762;DHT22;11203;50.870;20.682;2023-01-13T00:12:50;1.70;1.00
21762;DHT22;11203;50.870;20.682;2023-01-13T00:15:18;1.80;99.90
21762;DHT22;11203;50.870;20.682;2023-01-13T00:17:45;1.80;1.00
21762;DHT22;11203;50.870;20.682;2023-01-13T00:20:13;1.90;1.00
21762;DHT22;11203;50.870;20.682;2023-01-13T00:22:41;1.80;99.90
21762;DHT22;11203;50.870;20.682;2023-01-13T00:25:07;1.90;1.00
21762;DHT22;11203;50.870;20.682;2023-01-13T00:27:34;1.90;99.90
21762;DHT22;11203;50.870;20.682;2023-01-13T00:30:01;1.90;1.00
21762;DHT22;11203;50.870;20.682;2023-01-13T00:32:28;2.00;99.90
21762;DHT22;11203;50.870;20.682;2023-01-13T00:34:55;2.00;60.90
21762;DHT22;11203;50.870;20.682;2023-01-13T00:37:22;2.10;99.90
21762;DHT22;11203;50.870;20.682;2023-01-13T00:39:51;2.10;1.00
21762;DHT22;11203;50.870;20.682;2023-01-13T00:42:18;2.10;1.00
21762;DHT22;11203;50.870;20.682;2023-01-13T00:45:04;2.20;99.90
21762;DHT22;11203;50.870;20.682;2023-01-13T00:47:31;2.30;99.90
21762;DHT22;11203;50.870;20.682;2023-01-13T00:49:57;2.30;1.00
21762;DHT22;11203;50.870;20.682;2023-01-13T00:52:25;2.30;1.00
21762;DHT22;11203;50.870;20.682;2023-01-13T00:54:52;2.30;1.00
21762;DHT22;11203;50.870;20.682;2023-01-13T00:57:19;2.30;99.90
21762;DHT22;11203;50.870;20.682;2023-01-13T00:59:45;2.30;1.00
21762;DHT22;11203;50.870;20.682;2023-01-13T01:02:13;2.30;1.00
21762;DHT22;11203;50.870;20.682;2023-01-13T01:04:40;2.30;1.00
21762;DHT22;11203;50.870;20.682;2023-01-13T01:07:07;2.30;99.90
21762;DHT22;11203;50.870;20.682;2023-01-13T01:09:34;2.30;1.00
21762;DHT22;11203;50.870;20.682;2023-01-13T01:12:01;2.30;1.00
21762;DHT22;11203;50.870;20.682;2023-01-13T01:14:27;2.30;96.90
21762;DHT22;11203;50.870;20.682;2023-01-13T01:16:54;2.40;1.00
21762;DHT22;11203;50.870;20.682;2023-01-13T01:19:21;2.40;1.00
21762;DHT22;11203;50.870;20.682;2023-01-13T01:21:48;2.40;1.00
21762;DHT22;11203;50.870;20.682;2023-01-13T01:24:15;2.50;1.00
21762;DHT22;11203;50.870;20.682;2023-01-13T01:26:42;2.50;1.00
21762;DHT22;11203;50.870;20.682;2023-01-13T01:29:12;2.50;1.00
21762;DHT22;11203;50.870;20.682;2023-01-13T01:31:41;2.50;1.00
21762;DHT22;11203;50.870;20.682;2023-01-13T01:34:08;2.60;1.00
21762;DHT22;11203;50.870;20.682;2023-01-13T01:36:35;2.60;91.70
21762;DHT22;11203;50.870;20.682;2023-01-13T01:39:02;2.60;99.90
21762;DHT22;11203;50.870;20.682;2023-01-13T01:41:32;2.60;1.00
21762;DHT22;11203;50.870;20.682;2023-01-13T01:46:48;2.70;1.00
21762;DHT22;11203;50.870;20.682;2023-01-13T01:49:21;2.70;99.90
21762;DHT22;11203;50.870;20.682;2023-01-13T01:52:01;2.80;99.90
21762;DHT22;11203;50.870;20.682;2023-01-13T01:54:46;2.80;81.50
21762;DHT22;11203;50.870;20.682;2023-01-13T02:00:04;2.80;1.00
21762;DHT22;11203;50.870;20.682;2023-01-13T02:02:32;2.90;29.90
21762;DHT22;11203;50.870;20.682;2023-01-13T02:04:59;2.90;99.90
21762;DHT22;11203;50.870;20.682;2023-01-13T02:07:29;2.90;1.00
21762;DHT22;11203;50.870;20.682;2023-01-13T02:10:00;2.90;21.00
21762;DHT22;11203;50.870;20.682;2023-01-13T02:12:31;3.00;1.00
21762;DHT22;11203;50.870;20.682;2023-01-13T02:15:03;3.00;1.00
21762;DHT22;11203;50.870;20.682;2023-01-13T02:27:28;3.20;99.90
21762;DHT22;11203;50.870;20.682;2023-01-13T02:30:12;3.10;99.90
21762;DHT22;11203;50.870;20.682;2023-01-13T02:33:12;3.10;99.90
21762;DHT22;11203;50.870;20.682;2023-01-13T02:39:26;3.20;99.90
21762;DHT22;11203;50.870;20.682;2023-01-13T02:44:50;3.20;99.90
21762;DHT22;11203;50.870;20.682;2023-01-13T02:47:24;3.20;1.00
21762;DHT22;11203;50.870;20.682;2023-01-13T02:50:01;3.20;1.00
21762;DHT22;11203;50.870;20.682;2023-01-13T02:52:43;3.20;1.00
21762;DHT22;11203;50.870;20.682;2023-01-13T02:55:17;3.20;99.90
21762;DHT22;11203;50.870;20.682;2023-01-13T02:57:48;3.20;1.00
21762;DHT22;11203;50.870;20.682;2023-01-13T03:00:17;3.30;1.00
21762;DHT22;11203;50.870;20.682;2023-01-13T03:02:47;3.30;99.90
21762;DHT22;11203;50.870;20.682;2023-01-13T03:05:15;3.20;1.00
21762;DHT22;11203;50.870;20.682;2023-01-13T03:11:06;3.30;1.00
21762;DHT22;11203;50.870;20.682;2023-01-13T03:16:47;3.30;99.90
21762;DHT22;11203;50.870;20.682;2023-01-13T03:19:42;3.40;1.00
21762;DHT22;11203;50.870;20.682;2023-01-13T03:23:46;3.40;1.00
21762;DHT22;11203;50.870;20.682;2023-01-13T03:25:54;3.40;1.00
21762;DHT22;11203;50.870;20.682;2023-01-13T03:28:31;3.40;1.00
21762;DHT22;11203;50.870;20.682;2023-01-13T03:31:07;3.50;1.00
21762;DHT22;11203;50.870;20.682;2023-01-13T03:33:45;3.50;1.00
21762;DHT22;11203;50.870;20.682;2023-01-13T03:36:16;3.50;1.00
21762;DHT22;11203;50.870;20.682;2023-01-13T03:38:50;3.50;1.00
21762;DHT22;11203;50.870;20.682;2023-01-13T03:41:24;3.60;1.00
21762;DHT22;11203;50.870;20.682;2023-01-13T03:49:51;3.60;1.00
21762;DHT22;11203;50.870;20.682;2023-01-13T03:52:28;3.60;1.00
21762;DHT22;11203;50.870;20.682;2023-01-13T03:55:05;3.60;1.00
21762;DHT22;11203;50.870;20.682;2023-01-13T03:57:43;3.60;1.00
21762;DHT22;11203;50.870;20.682;2023-01-13T04:00:17;3.70;1.00
21762;DHT22;11203;50.870;20.682;2023-01-13T04:02:50;3.70;1.00
21762;DHT22;11203;50.870;20.682;2023-01-13T04:05:46;3.70;1.00
21762;DHT22;11203;50.870;20.682;2023-01-13T04:08:25;3.70;1.00
21762;DHT22;11203;50.870;20.682;2023-01-13T04:11:28;3.70;1.00
21762;DHT22;11203;50.870;20.682;2023-01-13T04:14:02;3.60;1.00
21762;DHT22;11203;50.870;20.682;2023-01-13T04:16:30;3.70;1.00
21762;DHT22;11203;50.870;20.682;2023-01-13T04:18:57;3.70;1.00
21762;DHT22;11203;50.870;20.682;2023-01-13T04:21:24;3.70;1.00
21762;DHT22;11203;50.870;20.682;2023-01-13T04:23:52;3.70;1.00
21762;DHT22;11203;50.870;20.682;2023-01-13T04:26:18;3.70;1.00
21762;DHT22;11203;50.870;20.682;2023-01-13T04:28:45;3.70;1.00
21762;DHT22;11203;50.870;20.682;2023-01-13T04:31:12;3.70;1.00
21762;DHT22;11203;50.870;20.682;2023-01-13T04:33:39;3.70;1.00
21762;DHT22;11203;50.870;20.682;2023-01-13T04:36:06;3.70;1.00
21762;DHT22;11203;50.870;20.682;2023-01-13T04:38:33;3.70;1.00
21762;DHT22;11203;50.870;20.682;2023-01-13T04:41:00;3.60;1.00
21762;DHT22;11203;50.870;20.682;2023-01-13T04:43:27;3.70;1.00
21762;DHT22;11203;50.870;20.682;2023-01-13T04:45:54;3.60;1.00
21762;DHT22;11203;50.870;20.682;2023-01-13T04:48:20;3.50;1.00
21762;DHT22;11203;50.870;20.682;2023-01-13T04:50:48;3.50;1.00
21762;DHT22;11203;50.870;20.682;2023-01-13T04:53:15;3.50;1.00
21762;DHT22;11203;50.870;20.682;2023-01-13T04:55:42;3.50;1.00
21762;DHT22;11203;50.870;20.682;2023-01-13T04:58:10;3.50;1.00
21762;DHT22;11203;50.870;20.682;2023-01-13T05:00:37;3.50;1.00
21762;DHT22;11203;50.870;20.682;2023-01-13T05:03:04;3.50;1.00
21762;DHT22;11203;50.870;20.682;2023-01-13T05:05:32;3.50;1.00
21762;DHT22;11203;50.870;20.682;2023-01-13T05:08:00;3.50;1.00
21762;DHT22;11203;50.870;20.682;2023-01-13T05:10:27;3.50;1.00
21762;DHT22;11203;50.870;20.682;2023-01-13T05:12:55;3.50;1.00
21762;DHT22;11203;50.870;20.682;2023-01-13T05:15:41;3.50;1.00
21762;DHT22;11203;50.870;20.682;2023-01-13T05:18:29;3.50;1.00
21762;DHT22;11203;50.870;20.682;2023-01-13T05:20:57;3.50;1.00
21762;DHT22;11203;50.870;20.682;2023-01-13T05:23:24;3.40;1.00
21762;DHT22;11203;50.870;20.682;2023-01-13T05:26:09;3.40;1.00
21762;DHT22;11203;50.870;20.682;2023-01-13T05:28:36;3.40;1.00
21762;DHT22;11203;50.870;20.682;2023-01-13T05:31:03;3.30;1.00
21762;DHT22;11203;50.870;20.682;2023-01-13T05:33:30;3.30;1.00
21762;DHT22;11203;50.870;20.682;2023-01-13T05:36:01;3.30;1.00
21762;DHT22;11203;50.870;20.682;2023-01-13T05:38:29;3.30;1.00
21762;DHT22;11203;50.870;20.682;2023-01-13T05:40:58;3.40;1.00
21762;DHT22;11203;50.870;20.682;2023-01-13T05:43:44;3.40;1.00
21762;DHT22;11203;50.870;20.682;2023-01-13T05:46:11;3.40;1.00
21762;DHT22;11203;50.870;20.682;2023-01-13T05:48:41;3.40;1.00
21762;DHT22;11203;50.870;20.682;2023-01-13T05:51:10;3.30;1.00
21762;DHT22;11203;50.870;20.682;2023-01-13T05:53:40;3.30;1.00
21762;DHT22;11203;50.870;20.682;2023-01-13T05:56:07;3.30;1.00
21762;DHT22;11203;50.870;20.682;2023-01-13T05:58:35;3.30;1.00
21762;DHT22;11203;50.870;20.682;2023-01-13T06:01:04;3.30;1.00
21762;DHT22;11203;50.870;20.682;2023-01-13T06:03:33;3.90;15.00
21762;DHT22;11203;50.870;20.682;2023-01-13T06:06:00;3.60;1.00
21762;DHT22;11203;50.870;20.682;2023-01-13T06:08:30;3.50;1.00
21762;DHT22;11203;50.870;20.682;2023-01-13T06:10:57;3.40;1.00
21762;DHT22;11203;50.870;20.682;2023-01-13T06:13:24;3.50;1.00
21762;DHT22;11203;50.870;20.682;2023-01-13T06:15:54;3.40;1.00
21762;DHT22;11203;50.870;20.682;2023-01-13T06:18:22;3.40;1.00
21762;DHT22;11203;50.870;20.682;2023-01-13T06:20:49;3.30;99.90
21762;DHT22;11203;50.870;20.682;2023-01-13T06:23:16;3.40;99.90
21762;DHT22;11203;50.870;20.682;2023-01-13T06:26:01;3.30;99.90
21762;DHT22;11203;50.870;20.682;2023-01-13T06:28:32;3.30;99.90
21762;DHT22;11203;50.870;20.682;2023-01-13T06:31:02;3.30;99.90
21762;DHT22;11203;50.870;20.682;2023-01-13T06:33:38;3.30;99.90
21762;DHT22;11203;50.870;20.682;2023-01-13T06:36:14;3.30;99.90
21762;DHT22;11203;50.870;20.682;2023-01-13T06:38:47;3.30;1.00
21762;DHT22;11203;50.870;20.682;2023-01-13T06:41:18;3.30;1.00
21762;DHT22;11203;50.870;20.682;2023-01-13T06:44:09;3.40;1.00
21762;DHT22;11203;50.870;20.682;2023-01-13T06:46:36;3.40;36.90
21762;DHT22;11203;50.870;20.682;2023-01-13T06:49:04;3.40;70.10
21762;DHT22;11203;50.870;20.682;2023-01-13T06:51:32;3.40;99.90
21762;DHT22;11203;50.870;20.682;2023-01-13T06:54:00;3.40;1.00
21762;DHT22;11203;50.870;20.682;2023-01-13T06:56:26;3.50;99.90
21762;DHT22;11203;50.870;20.682;2023-01-13T06:58:54;3.50;1.00
21762;DHT22;11203;50.870;20.682;2023-01-13T07:01:24;3.50;1.00
21762;DHT22;11203;50.870;20.682;2023-01-13T07:03:57;3.50;99.90
21762;DHT22;11203;50.870;20.682;2023-01-13T07:06:23;3.60;99.90
21762;DHT22;11203;50.870;20.682;2023-01-13T07:08:50;3.60;1.00
21762;DHT22;11203;50.870;20.682;2023-01-13T07:11:17;3.70;99.90
21762;DHT22;11203;50.870;20.682;2023-01-13T07:13:44;3.70;1.00
21762;DHT22;11203;50.870;20.682;2023-01-13T07:16:29;3.80;1.00
21762;DHT22;11203;50.870;20.682;2023-01-13T07:18:56;3.70;6.80
21762;DHT22;11203;50.870;20.682;2023-01-13T07:21:22;3.80;1.00
21762;DHT22;11203;50.870;20.682;2023-01-13T07:23:52;3.80;1.00
21762;DHT22;11203;50.870;20.682;2023-01-13T07:26:19;3.80;99.90
21762;DHT22;11203;50.870;20.682;2023-01-13T07:28:46;3.80;1.00
21762;DHT22;11203;50.870;20.682;2023-01-13T07:31:15;3.90;99.90
21762;DHT22;11203;50.870;20.682;2023-01-13T07:33:44;3.80;1.00
21762;DHT22;11203;50.870;20.682;2023-01-13T07:36:11;3.90;99.90
21762;DHT22;11203;50.870;20.682;2023-01-13T07:38:39;3.90;44.70
21762;DHT22;11203;50.870;20.682;2023-01-13T07:41:06;4.00;1.00
21762;DHT22;11203;50.870;20.682;2023-01-13T07:43:52;4.00;1.00
21762;DHT22;11203;50.870;20.682;2023-01-13T07:46:18;4.10;99.90
21762;DHT22;11203;50.870;20.682;2023-01-13T07:48:46;4.10;25.90
21762;DHT22;11203;50.870;20.682;2023-01-13T07:51:14;4.10;1.00
21762;DHT22;11203;50.870;20.682;2023-01-13T07:53:41;4.10;1.00
21762;DHT22;11203;50.870;20.682;2023-01-13T07:56:08;4.20;99.90
21762;DHT22;11203;50.870;20.682;2023-01-13T07:58:37;4.20;1.00
21762;DHT22;11203;50.870;20.682;2023-01-13T08:01:13;4.30;1.00
21762;DHT22;11203;50.870;20.682;2023-01-13T08:03:42;4.40;99.90
21762;DHT22;11203;50.870;20.682;2023-01-13T08:06:10;4.40;1.00
21762;DHT22;11203;50.870;20.682;2023-01-13T08:08:38;4.50;1.00
21762;DHT22;11203;50.870;20.682;2023-01-13T08:11:07;4.60;1.00
21762;DHT22;11203;50.870;20.682;2023-01-13T08:13:34;4.60;99.90
21762;DHT22;11203;50.870;20.682;2023-01-13T08:16:07;4.70;99.90
21762;DHT22;11203;50.870;20.682;2023-01-13T08:18:36;4.70;99.90
21762;DHT22;11203;50.870;20.682;2023-01-13T08:21:06;4.90;99.90
21762;DHT22;11203;50.870;20.682;2023-01-13T08:23:35;4.90;1.00
21762;DHT22;11203;50.870;20.682;2023-01-13T08:26:08;5.00;99.90
21762;DHT22;11203;50.870;20.682;2023-01-13T08:28:37;5.00;99.90
21762;DHT22;11203;50.870;20.682;2023-01-13T08:31:07;5.10;99.90
21762;DHT22;11203;50.870;20.682;2023-01-13T08:33:37;5.20;1.00
21762;DHT22;11203;50.870;20.682;2023-01-13T08:36:06;5.20;99.90
21762;DHT22;11203;50.870;20.682;2023-01-13T08:38:35;5.30;1.00
21762;DHT22;11203;50.870;20.682;2023-01-13T08:41:14;5.40;1.00
21762;DHT22;11203;50.870;20.682;2023-01-13T08:44:02;5.40;1.00
21762;DHT22;11203;50.870;20.682;2023-01-13T08:46:30;5.40;1.00
21762;DHT22;11203;50.870;20.682;2023-01-13T08:48:57;5.40;1.00
21762;DHT22;11203;50.870;20.682;2023-01-13T08:51:24;5.50;1.00
21762;DHT22;11203;50.870;20.682;2023-01-13T08:53:51;5.50;99.90
21762;DHT22;11203;50.870;20.682;2023-01-13T08:56:18;5.60;1.00
21762;DHT22;11203;50.870;20.682;2023-01-13T08:58:46;5.70;1.00
21762;DHT22;11203;50.870;20.682;2023-01-13T09:01:19;5.70;99.90
21762;DHT22;11203;50.870;20.682;2023-01-13T09:03:47;5.70;1.00
21762;DHT22;11203;50.870;20.682;2023-01-13T09:06:14;5.80;99.90
21762;DHT22;11203;50.870;20.682;2023-01-13T09:08:41;5.80;1.00
21762;DHT22;11203;50.870;20.682;2023-01-13T09:11:18;5.90;1.00
21762;DHT22;11203;50.870;20.682;2023-01-13T09:14:25;5.90;1.00
21762;DHT22;11203;50.870;20.682;2023-01-13T09:16:54;6.00;99.90
21762;DHT22;11203;50.870;20.682;2023-01-13T09:19:21;6.10;99.90
21762;DHT22;11203;50.870;20.682;2023-01-13T09:21:49;6.10;99.90
21762;DHT22;11203;50.870;20.682;2023-01-13T09:24:18;6.20;1.00
21762;DHT22;11203;50.870;20.682;2023-01-13T09:26:46;6.20;1.00
21762;DHT22;11203;50.870;20.682;2023-01-13T09:29:13;6.40;99.90
21762;DHT22;11203;50.870;20.682;2023-01-13T09:31:41;6.40;1.00
21762;DHT22;11203;50.870;20.682;2023-01-13T09:34:26;6.50;1.00
21762;DHT22;11203;50.870;20.682;2023-01-13T09:37:11;6.60;1.00
21762;DHT22;11203;50.870;20.682;2023-01-13T09:39:39;6.60;1.00
21762;DHT22;11203;50.870;20.682;2023-01-13T09:45:16;6.80;1.00
21762;DHT22;11203;50.870;20.682;2023-01-13T09:48:15;6.90;1.00
21762;DHT22;11203;50.870;20.682;2023-01-13T09:51:08;7.00;99.90
21762;DHT22;11203;50.870;20.682;2023-01-13T09:53:56;7.20;1.00
21762;DHT22;11203;50.870;20.682;2023-01-13T09:56:45;7.20;1.00
21762;DHT22;11203;50.870;20.682;2023-01-13T09:59:12;7.30;1.00
21762;DHT22;11203;50.870;20.682;2023-01-13T10:01:55;7.30;99.90
21762;DHT22;11203;50.870;20.682;2023-01-13T10:04:25;7.40;99.90
21762;DHT22;11203;50.870;20.682;2023-01-13T10:07:00;7.50;1.00
21762;DHT22;11203;50.870;20.682;2023-01-13T10:09:48;7.50;39.70
21762;DHT22;11203;50.870;20.682;2023-01-13T10:12:24;7.50;1.00
21762;DHT22;11203;50.870;20.682;2023-01-13T10:15:24;7.50;1.00
21762;DHT22;11203;50.870;20.682;2023-01-13T10:18:12;7.50;1.00
21762;DHT22;11203;50.870;20.682;2023-01-13T10:24:03;7.50;21.60
21762;DHT22;11203;50.870;20.682;2023-01-13T10:29:25;7.50;99.90
21762;DHT22;11203;50.870;20.682;2023-01-13T10:31:54;7.50;1.00
21762;DHT22;11203;50.870;20.682;2023-01-13T10:34:24;7.50;1.00
21762;DHT22;11203;50.870;20.682;2023-01-13T10:37:03;7.50;99.90
21762;DHT22;11203;50.870;20.682;2023-01-13T10:39:44;7.50;1.00
21762;DHT22;11203;50.870;20.682;2023-01-13T10:42:17;7.60;1.00
21762;DHT22;11203;50.870;20.682;2023-01-13T10:44:49;7.50;1.00
21762;DHT22;11203;50.870;20.682;2023-01-13T10:47:28;7.60;1.00
21762;DHT22;11203;50.870;20.682;2023-01-13T10:52:39;7.60;1.00
21762;DHT22;11203;50.870;20.682;2023-01-13T10:55:30;7.50;1.00
21762;DHT22;11203;50.870;20.682;2023-01-13T10:58:13;7.60;60.60
21762;DHT22;11203;50.870;20.682;2023-01-13T11:00:48;7.50;1.00
21762;DHT22;11203;50.870;20.682;2023-01-13T11:03:38;7.60;1.00
21762;DHT22;11203;50.870;20.682;2023-01-13T11:06:08;7.60;1.00
21762;DHT22;11203;50.870;20.682;2023-01-13T11:08:47;7.60;99.90
21762;DHT22;11203;50.870;20.682;2023-01-13T11:14:03;7.60;1.00
21762;DHT22;11203;50.870;20.682;2023-01-13T11:17:10;7.70;1.00
21762;DHT22;11203;50.870;20.682;2023-01-13T11:22:49;7.70;58.10
21762;DHT22;11203;50.870;20.682;2023-01-13T11:28:03;7.80;27.50
21762;DHT22;11203;50.870;20.682;2023-01-13T11:31:04;7.70;99.90
21762;DHT22;11203;50.870;20.682;2023-01-13T11:40:30;7.90;1.00
21762;DHT22;11203;50.870;20.682;2023-01-13T11:43:07;7.90;99.90
21762;DHT22;11203;50.870;20.682;2023-01-13T11:45:57;7.90;99.90
21762;DHT22;11203;50.870;20.682;2023-01-13T11:48:28;7.90;99.90
21762;DHT22;11203;50.870;20.682;2023-01-13T11:53:47;7.90;99.90
21762;DHT22;11203;50.870;20.682;2023-01-13T11:57:00;7.90;99.90
21762;DHT22;11203;50.870;20.682;2023-01-13T12:10:06;8.00;99.90
21762;DHT22;11203;50.870;20.682;2023-01-13T12:25:57;8.00;1.00
21762;DHT22;11203;50.870;20.682;2023-01-13T12:28:39;8.10;99.90
21762;DHT22;11203;50.870;20.682;2023-01-13T12:31:09;8.10;1.00
21762;DHT22;11203;50.870;20.682;2023-01-13T12:42:31;7.90;99.90
21762;DHT22;11203;50.870;20.682;2023-01-13T12:45:30;8.00;1.00
21762;DHT22;11203;50.870;20.682;2023-01-13T12:47:58;7.90;1.00
21762;DHT22;11203;50.870;20.682;2023-01-13T12:53:30;7.90;1.00
21762;DHT22;11203;50.870;20.682;2023-01-13T12:56:28;7.90;99.90
21762;DHT22;11203;50.870;20.682;2023-01-13T13:06:15;7.80;1.00
21762;DHT22;11203;50.870;20.682;2023-01-13T13:11:43;7.80;99.90
21762;DHT22;11203;50.870;20.682;2023-01-13T13:19:55;7.70;99.90
21762;DHT22;11203;50.870;20.682;2023-01-13T13:36:12;7.60;99.90
21762;DHT22;11203;50.870;20.682;2023-01-13T13:39:44;7.70;1.00
21762;DHT22;11203;50.870;20.682;2023-01-13T13:46:23;7.60;99.90
21762;DHT22;11203;50.870;20.682;2023-01-13T13:49:17;7.70;99.90
21762;DHT22;11203;50.870;20.682;2023-01-13T13:54:56;7.60;1.00
21762;DHT22;11203;50.870;20.682;2023-01-13T13:57:37;7.50;99.90
21762;DHT22;11203;50.870;20.682;2023-01-13T14:00:20;7.50;1.00
21762;DHT22;11203;50.870;20.682;2023-01-13T14:03:18;7.50;1.00
21762;DHT22;11203;50.870;20.682;2023-01-13T14:05:54;7.40;1.00
21762;DHT22;11203;50.870;20.682;2023-01-13T14:08:36;7.40;1.00
21762;DHT22;11203;50.870;20.682;2023-01-13T14:11:30;7.40;1.00
21762;DHT22;11203;50.870;20.682;2023-01-13T14:14:10;7.30;1.00
21762;DHT22;11203;50.870;20.682;2023-01-13T14:16:40;7.20;1.00
21762;DHT22;11203;50.870;20.682;2023-01-13T14:19:34;7.30;1.00
21762;DHT22;11203;50.870;20.682;2023-01-13T14:22:03;7.30;1.00
21762;DHT22;11203;50.870;20.682;2023-01-13T14:24:31;7.30;1.00
21762;DHT22;11203;50.870;20.682;2023-01-13T14:27:13;7.20;99.90
21762;DHT22;11203;50.870;20.682;2023-01-13T14:29:41;7.20;25.60
21762;DHT22;11203;50.870;20.682;2023-01-13T14:32:14;7.20;1.00
21762;DHT22;11203;50.870;20.682;2023-01-13T14:34:44;7.20;1.00
21762;DHT22;11203;50.870;20.682;2023-01-13T14:37:34;7.20;99.90
21762;DHT22;11203;50.870;20.682;2023-01-13T14:40:01;7.10;1.00
21762;DHT22;11203;50.870;20.682;2023-01-13T14:42:29;7.20;88.30
21762;DHT22;11203;50.870;20.682;2023-01-13T14:44:56;7.10;1.00
21762;DHT22;11203;50.870;20.682;2023-01-13T14:47:31;7.10;53.50
21762;DHT22;11203;50.870;20.682;2023-01-13T14:50:05;7.10;99.90
21762;DHT22;11203;50.870;20.682;2023-01-13T14:52:51;7.10;1.00
21762;DHT22;11203;50.870;20.682;2023-01-13T14:55:35;7.10;36.60
21762;DHT22;11203;50.870;20.682;2023-01-13T14:58:26;7.10;99.90
21762;DHT22;11203;50.870;20.682;2023-01-13T15:04:25;7.00;62.80
21762;DHT22;11203;50.870;20.682;2023-01-13T15:06:57;7.00;99.90
21762;DHT22;11203;50.870;20.682;2023-01-13T15:09:28;6.90;1.00
21762;DHT22;11203;50.870;20.682;2023-01-13T15:12:16;6.90;1.00
21762;DHT22;11203;50.870;20.682;2023-01-13T15:14:49;6.90;1.00
21762;DHT22;11203;50.870;20.682;2023-01-13T15:21:19;6.70;1.00
21762;DHT22;11203;50.870;20.682;2023-01-13T15:23:47;6.70;1.00
21762;DHT22;11203;50.870;20.682;2023-01-13T15:26:18;6.60;1.00
21762;DHT22;11203;50.870;20.682;2023-01-13T15:28:47;6.60;99.90
21762;DHT22;11203;50.870;20.682;2023-01-13T15:31:16;6.50;99.90
21762;DHT22;11203;50.870;20.682;2023-01-13T15:33:43;6.60;1.00
21762;DHT22;11203;50.870;20.682;2023-01-13T15:36:26;6.40;1.00
21762;DHT22;11203;50.870;20.682;2023-01-13T15:38:55;6.50;1.00
21762;DHT22;11203;50.870;20.682;2023-01-13T15:41:21;6.50;99.90
21762;DHT22;11203;50.870;20.682;2023-01-13T15:44:10;6.50;99.90
21762;DHT22;11203;50.870;20.682;2023-01-13T15:46:58;6.40;99.90
21762;DHT22;11203;50.870;20.682;2023-01-13T15:49:39;6.40;28.10
21762;DHT22;11203;50.870;20.682;2023-01-13T15:52:18;6.50;47.10
21762;DHT22;11203;50.870;20.682;2023-01-13T15:58:47;6.50;99.90
21762;DHT22;11203;50.870;20.682;2023-01-13T16:05:14;6.50;99.90
21762;DHT22;11203;50.870;20.682;2023-01-13T16:07:41;6.50;1.00
21762;DHT22;11203;50.870;20.682;2023-01-13T16:10:22;6.50;1.00
21762;DHT22;11203;50.870;20.682;2023-01-13T16:12:52;6.50;99.90
21762;DHT22;11203;50.870;20.682;2023-01-13T16:15:21;6.50;1.10
21762;DHT22;11203;50.870;20.682;2023-01-13T16:17:58;6.50;99.90
21762;DHT22;11203;50.870;20.682;2023-01-13T16:20:28;6.50;1.00
21762;DHT22;11203;50.870;20.682;2023-01-13T16:22:57;6.50;99.90
21762;DHT22;11203;50.870;20.682;2023-01-13T16:25:25;6.60;99.90
21762;DHT22;11203;50.870;20.682;2023-01-13T16:27:53;6.70;99.90
21762;DHT22;11203;50.870;20.682;2023-01-13T16:33:02;6.50;1.00
21762;DHT22;11203;50.870;20.682;2023-01-13T16:35:29;6.60;95.70
21762;DHT22;11203;50.870;20.682;2023-01-13T16:38:00;6.60;99.90
21762;DHT22;11203;50.870;20.682;2023-01-13T16:40:33;6.70;99.90
21762;DHT22;11203;50.870;20.682;2023-01-13T16:43:03;6.60;99.90
21762;DHT22;11203;50.870;20.682;2023-01-13T16:45:32;6.70;99.90
21762;DHT22;11203;50.870;20.682;2023-01-13T16:47:59;6.70;99.90
21762;DHT22;11203;50.870;20.682;2023-01-13T16:50:38;6.70;1.00
21762;DHT22;11203;50.870;20.682;2023-01-13T16:53:08;6.70;99.90
21762;DHT22;11203;50.870;20.682;2023-01-13T16:55:37;6.70;1.00
21762;DHT22;11203;50.870;20.682;2023-01-13T16:58:05;6.70;1.00
21762;DHT22;11203;50.870;20.682;2023-01-13T17:00:34;6.70;99.90
21762;DHT22;11203;50.870;20.682;2023-01-13T17:03:01;6.70;99.90
21762;DHT22;11203;50.870;20.682;2023-01-13T17:05:28;6.70;99.90
21762;DHT22;11203;50.870;20.682;2023-01-13T17:07:55;6.70;1.00
21762;DHT22;11203;50.870;20.682;2023-01-13T17:10:23;6.70;99.90
21762;DHT22;11203;50.870;20.682;2023-01-13T17:12:50;6.80;1.00
21762;DHT22;11203;50.870;20.682;2023-01-13T17:15:18;6.70;1.00
21762;DHT22;11203;50.870;20.682;2023-01-13T17:17:46;6.70;99.90
21762;DHT22;11203;50.870;20.682;2023-01-13T17:20:17;6.60;99.90
21762;DHT22;11203;50.870;20.682;2023-01-13T17:22:45;6.60;99.90
21762;DHT22;11203;50.870;20.682;2023-01-13T17:25:12;6.70;1.00
21762;DHT22;11203;50.870;20.682;2023-01-13T17:27:40;6.60;1.00
21762;DHT22;11203;50.870;20.682;2023-01-13T17:30:08;6.60;1.00
21762;DHT22;11203;50.870;20.682;2023-01-13T17:32:36;6.90;1.00
21762;DHT22;11203;50.870;20.682;2023-01-13T17:35:03;6.90;1.00
21762;DHT22;11203;50.870;20.682;2023-01-13T17:37:31;6.80;1.00
21762;DHT22;11203;50.870;20.682;2023-01-13T17:39:58;6.80;1.00
21762;DHT22;11203;50.870;20.682;2023-01-13T17:42:26;6.70;1.00
21762;DHT22;11203;50.870;20.682;2023-01-13T17:44:55;6.70;1.00
21762;DHT22;11203;50.870;20.682;2023-01-13T17:47:22;6.70;1.00
21762;DHT22;11203;50.870;20.682;2023-01-13T17:49:49;6.70;1.00
21762;DHT22;11203;50.870;20.682;2023-01-13T17:52:16;6.70;1.00
21762;DHT22;11203;50.870;20.682;2023-01-13T17:54:42;6.60;1.00
21762;DHT22;11203;50.870;20.682;2023-01-13T17:57:10;6.70;1.00
21762;DHT22;11203;50.870;20.682;2023-01-13T17:59:36;6.60;1.00
21762;DHT22;11203;50.870;20.682;2023-01-13T18:02:03;6.70;1.00
21762;DHT22;11203;50.870;20.682;2023-01-13T18:04:30;6.60;1.00
21762;DHT22;11203;50.870;20.682;2023-01-13T18:06:57;6.50;1.00
21762;DHT22;11203;50.870;20.682;2023-01-13T18:09:23;6.60;1.00
21762;DHT22;11203;50.870;20.682;2023-01-13T18:11:50;6.60;1.00
21762;DHT22;11203;50.870;20.682;2023-01-13T18:14:16;6.60;1.00
21762;DHT22;11203;50.870;20.682;2023-01-13T18:16:43;6.60;1.00
21762;DHT22;11203;50.870;20.682;2023-01-13T18:19:10;6.50;1.00
21762;DHT22;11203;50.870;20.682;2023-01-13T18:21:54;6.60;1.00
21762;DHT22;11203;50.870;20.682;2023-01-13T18:24:39;6.60;1.00
21762;DHT22;11203;50.870;20.682;2023-01-13T18:27:32;6.60;99.90
21762;DHT22;11203;50.870;20.682;2023-01-13T18:30:00;6.70;99.90
21762;DHT22;11203;50.870;20.682;2023-01-13T18:32:30;6.60;1.00
21762;DHT22;11203;50.870;20.682;2023-01-13T18:35:01;6.60;99.90
21762;DHT22;11203;50.870;20.682;2023-01-13T18:37:31;6.60;1.00
21762;DHT22;11203;50.870;20.682;2023-01-13T18:40:00;6.60;99.90
21762;DHT22;11203;50.870;20.682;2023-01-13T18:42:26;6.60;1.00
21762;DHT22;11203;50.870;20.682;2023-01-13T18:45:11;6.60;99.90
21762;DHT22;11203;50.870;20.682;2023-01-13T18:47:37;6.60;90.50
21762;DHT22;11203;50.870;20.682;2023-01-13T18:50:05;6.70;99.90